createdAt,value
2018-12-01T00:01:41.904Z,4.87
2018-12-01T00:03:45.954Z,7.53
2018-12-01T00:05:52.069Z,4.87
2018-12-01T00:07:56.831Z,6.07
2018-12-01T00:10:00.958Z,5.53
2018-12-01T00:12:05.854Z,4.50
2018-12-01T00:14:09.998Z,5.90
2018-12-01T00:16:14.016Z,6.27
2018-12-01T00:20:23.482Z,9.27
2018-12-01T00:22:27.510Z,5.57
2018-12-01T00:24:31.556Z,4.73
2018-12-01T00:26:35.719Z,4.10
2018-12-01T00:28:39.724Z,4.47
2018-12-01T00:30:43.759Z,5.77
2018-12-01T00:32:49.867Z,5.72
2018-12-01T00:34:53.973Z,3.43
2018-12-01T00:36:58.105Z,3.13
2018-12-01T00:39:02.126Z,4.57
2018-12-01T00:41:06.301Z,5.43
2018-12-01T00:43:10.362Z,5.07
2018-12-01T00:45:16.939Z,5.37
2018-12-01T00:47:20.970Z,4.23
2018-12-01T00:49:25.009Z,5.03
2018-12-01T00:51:29.105Z,3.53
2018-12-01T00:53:33.159Z,4.23
2018-12-01T00:55:37.255Z,4.20
2018-12-01T00:57:41.272Z,3.83
2018-12-01T00:59:45.351Z,4.60
2018-12-01T01:01:49.426Z,4.25
2018-12-01T01:03:53.537Z,9.53
2018-12-01T01:05:57.678Z,7.63
2018-12-01T01:08:01.977Z,9.63
2018-12-01T01:10:09.615Z,6.50
2018-12-01T01:12:13.848Z,4.03
2018-12-01T01:14:17.880Z,4.53
2018-12-01T01:16:21.996Z,2.58
2018-12-01T01:18:26.045Z,7.00
2018-12-01T01:20:30.086Z,4.33
2018-12-01T01:22:34.113Z,4.30
2018-12-01T01:24:39.085Z,4.20
2018-12-01T01:26:43.214Z,5.17
2018-12-01T01:28:47.270Z,8.50
2018-12-01T01:30:51.357Z,6.13
2018-12-01T01:33:12.557Z,5.53
2018-12-01T01:35:16.614Z,8.47
2018-12-01T01:37:20.678Z,6.27
2018-12-01T01:39:24.859Z,6.47
2018-12-01T01:41:28.955Z,3.60
2018-12-01T01:43:32.961Z,4.63
2018-12-01T01:45:37.069Z,2.93
2018-12-01T01:47:41.372Z,3.70
2018-12-01T01:49:45.402Z,4.45
2018-12-01T01:51:49.562Z,3.83
2018-12-01T01:53:53.611Z,4.62
2018-12-01T01:55:57.660Z,3.97
2018-12-01T01:58:01.826Z,4.10
2018-12-01T02:00:14.036Z,5.20
2018-12-01T02:02:20.134Z,3.87
2018-12-01T02:04:24.770Z,3.65
2018-12-01T02:06:31.264Z,4.40
2018-12-01T02:08:35.298Z,4.47
2018-12-01T02:10:39.352Z,4.23
2018-12-01T02:12:43.370Z,3.50
2018-12-01T02:14:47.561Z,2.97
2018-12-01T02:16:51.629Z,2.70
2018-12-01T02:18:55.770Z,2.77
2018-12-01T02:20:59.832Z,5.03
2018-12-01T02:23:03.894Z,3.73
2018-12-01T02:25:12.245Z,3.03
2018-12-01T02:27:16.292Z,7.23
2018-12-01T02:29:20.726Z,2.65
2018-12-01T02:31:24.864Z,4.45
2018-12-01T02:33:28.911Z,3.67
2018-12-01T02:35:33.074Z,3.10
2018-12-01T02:37:37.237Z,3.43
2018-12-01T02:39:41.291Z,4.67
2018-12-01T02:41:45.318Z,5.00
2018-12-01T02:45:07.581Z,5.17
2018-12-01T02:47:11.638Z,3.17
2018-12-01T02:49:15.790Z,5.93
2018-12-01T02:51:19.886Z,4.80
2018-12-01T02:53:24.106Z,3.53
2018-12-01T02:55:28.201Z,6.20
2018-12-01T02:57:32.542Z,4.42
2018-12-01T02:59:36.582Z,4.57
2018-12-01T03:01:41.221Z,3.93
2018-12-01T03:03:45.264Z,4.77
2018-12-01T03:05:49.303Z,5.50
2018-12-01T03:07:53.800Z,3.23
2018-12-01T03:09:57.863Z,4.67
2018-12-01T03:12:01.938Z,5.40
2018-12-01T03:14:06.467Z,4.50
2018-12-01T03:16:10.547Z,3.57
2018-12-01T03:18:15.133Z,3.80
2018-12-01T03:20:19.462Z,3.02
2018-12-01T03:22:23.573Z,5.37
2018-12-01T03:24:27.585Z,3.50
2018-12-01T03:26:31.628Z,4.70
2018-12-01T03:28:36.072Z,4.57
2018-12-01T03:30:40.130Z,5.37
2018-12-01T03:32:44.184Z,5.67
2018-12-01T03:34:48.229Z,5.73
2018-12-01T03:36:52.281Z,3.87
2018-12-01T03:38:56.314Z,5.53
2018-12-01T03:41:00.366Z,3.10
2018-12-01T03:43:04.441Z,4.23
2018-12-01T03:45:11.101Z,3.27
2018-12-01T03:47:15.269Z,5.07
2018-12-01T03:49:19.316Z,4.70
2018-12-01T03:51:23.323Z,4.50
2018-12-01T03:53:27.442Z,5.60
2018-12-01T03:55:33.254Z,4.23
2018-12-01T03:57:37.319Z,4.00
2018-12-01T03:59:41.452Z,3.57
2018-12-01T04:01:45.505Z,4.40
2018-12-01T04:03:49.574Z,3.70
2018-12-01T04:05:53.658Z,4.53
2018-12-01T04:07:57.758Z,4.40
2018-12-01T04:10:01.846Z,3.97
2018-12-01T04:12:06.166Z,4.33
2018-12-01T04:14:10.297Z,3.97
2018-12-01T04:16:15.218Z,3.87
2018-12-01T04:18:19.269Z,4.78
2018-12-01T04:20:23.380Z,4.53
2018-12-01T04:22:27.696Z,3.62
2018-12-01T04:24:31.811Z,4.13
2018-12-01T04:26:35.891Z,3.23
2018-12-01T04:28:39.914Z,4.10
2018-12-01T04:30:43.941Z,5.80
2018-12-01T04:32:48.068Z,3.83
2018-12-01T04:34:52.155Z,6.23
2018-12-01T04:36:56.321Z,3.45
2018-12-01T04:39:00.450Z,5.23
2018-12-01T04:41:04.528Z,3.77
2018-12-01T04:43:08.594Z,8.00
2018-12-01T04:45:12.672Z,5.27
2018-12-01T04:47:17.433Z,6.40
2018-12-01T04:49:21.510Z,4.67
2018-12-01T04:51:25.537Z,7.60
2018-12-01T04:53:29.632Z,5.13
2018-12-01T04:55:33.746Z,2.20
2018-12-01T04:57:37.794Z,6.10
2018-12-01T04:59:41.884Z,4.70
2018-12-01T05:01:45.974Z,4.77
2018-12-01T05:03:50.177Z,3.90
2018-12-01T05:05:54.209Z,4.03
2018-12-01T05:07:58.423Z,5.87
2018-12-01T05:10:02.561Z,5.73
2018-12-01T05:12:07.122Z,7.33
2018-12-01T05:14:11.229Z,5.53
2018-12-01T05:16:15.390Z,8.37
2018-12-01T05:18:19.548Z,7.97
2018-12-01T05:20:24.858Z,5.37
2018-12-01T05:22:28.964Z,7.12
2018-12-01T05:24:33.002Z,8.23
2018-12-01T05:26:37.059Z,5.77
2018-12-01T05:28:41.210Z,7.83
2018-12-01T05:30:45.267Z,6.40
2018-12-01T05:32:49.553Z,14.13
2018-12-01T05:34:53.649Z,6.40
2018-12-01T05:36:57.745Z,7.13
2018-12-01T05:39:01.780Z,6.90
2018-12-01T05:41:06.400Z,6.00
2018-12-01T05:43:10.485Z,6.50
2018-12-01T05:45:20.869Z,7.92
2018-12-01T05:47:24.974Z,6.53
2018-12-01T05:49:29.133Z,7.75
2018-12-01T05:51:33.166Z,6.22
2018-12-01T05:53:37.244Z,5.57
2018-12-01T05:55:41.291Z,7.23
2018-12-01T05:57:45.328Z,6.67
2018-12-01T05:59:49.429Z,7.70
2018-12-01T06:01:53.517Z,7.20
2018-12-01T06:03:57.590Z,6.63
2018-12-01T06:06:01.630Z,6.97
2018-12-01T06:08:06.066Z,10.27
2018-12-01T06:10:20.306Z,6.70
2018-12-01T06:12:24.337Z,6.80
2018-12-01T06:14:28.456Z,7.78
2018-12-01T06:16:32.498Z,6.65
2018-12-01T06:18:36.609Z,5.43
2018-12-01T06:20:40.709Z,8.60
2018-12-01T06:22:44.761Z,8.93
2018-12-01T06:24:48.936Z,6.40
2018-12-01T06:26:53.017Z,6.07
2018-12-01T06:28:57.221Z,6.30
2018-12-01T06:31:01.288Z,5.10
2018-12-01T06:33:05.713Z,6.70
2018-12-01T06:35:09.952Z,6.30
2018-12-01T06:37:14.189Z,9.97
2018-12-01T06:39:18.339Z,6.47
2018-12-01T06:41:22.436Z,4.53
2018-12-01T06:43:26.529Z,4.90
2018-12-01T06:45:30.705Z,5.37
2018-12-01T06:47:34.812Z,6.63
2018-12-01T06:49:38.914Z,9.03
2018-12-01T06:51:42.954Z,5.43
2018-12-01T06:53:47.005Z,7.83
2018-12-01T06:55:51.048Z,6.37
2018-12-01T06:57:55.175Z,4.77
2018-12-01T06:59:59.243Z,4.83
2018-12-01T07:02:03.301Z,8.87
2018-12-01T07:04:07.318Z,8.18
2018-12-01T07:06:11.431Z,5.30
2018-12-01T07:08:16.384Z,5.67
2018-12-01T07:10:21.726Z,5.40
2018-12-01T07:12:25.793Z,9.45
2018-12-01T07:14:29.919Z,6.90
2018-12-01T07:16:34.080Z,7.70
2018-12-01T07:19:20.457Z,8.07
2018-12-01T07:21:24.510Z,6.10
2018-12-01T07:23:28.678Z,9.27
2018-12-01T07:25:32.727Z,4.75
2018-12-01T07:27:36.773Z,6.10
2018-12-01T07:29:40.882Z,6.67
2018-12-01T07:31:44.993Z,7.07
2018-12-01T07:33:49.065Z,6.57
2018-12-01T07:35:53.182Z,7.37
2018-12-01T07:37:57.519Z,6.00
2018-12-01T07:40:01.548Z,5.33
2018-12-01T07:42:05.830Z,4.83
2018-12-01T07:44:09.862Z,4.07
2018-12-01T07:46:14.046Z,6.77
2018-12-01T07:48:18.048Z,5.57
2018-12-01T07:50:22.144Z,6.78
2018-12-01T07:52:26.240Z,5.87
2018-12-01T07:54:30.285Z,5.43
2018-12-01T07:56:34.402Z,4.37
2018-12-01T07:58:38.426Z,6.13
2018-12-01T08:00:42.489Z,4.93
2018-12-01T08:02:49.241Z,5.77
2018-12-01T08:04:53.409Z,7.33
2018-12-01T08:06:57.435Z,6.23
2018-12-01T08:09:01.526Z,5.20
2018-12-01T08:11:05.563Z,6.80
2018-12-01T08:13:09.629Z,5.70
2018-12-01T08:15:16.681Z,6.10
2018-12-01T08:17:20.805Z,5.47
2018-12-01T08:19:24.857Z,7.50
2018-12-01T08:21:29.006Z,5.75
2018-12-01T08:23:33.092Z,4.45
2018-12-01T08:25:37.190Z,8.10
2018-12-01T08:27:41.345Z,4.90
2018-12-01T08:29:45.542Z,3.90
2018-12-01T08:31:49.650Z,7.83
2018-12-01T08:33:53.711Z,6.30
2018-12-01T08:35:57.900Z,5.57
2018-12-01T08:38:01.883Z,4.67
2018-12-01T08:40:09.513Z,7.53
2018-12-01T08:42:13.512Z,5.47
2018-12-01T08:44:17.669Z,7.78
2018-12-01T08:46:21.713Z,5.97
2018-12-01T08:48:25.935Z,6.80
2018-12-01T08:50:30.077Z,6.67
2018-12-01T08:52:34.157Z,7.10
2018-12-01T08:54:38.169Z,6.53
2018-12-01T08:56:42.433Z,6.67
2018-12-01T08:58:46.535Z,7.50
2018-12-01T09:00:50.542Z,5.25
2018-12-01T09:02:57.857Z,8.33
2018-12-01T09:05:01.962Z,4.20
2018-12-01T09:07:06.025Z,6.53
2018-12-01T09:09:10.029Z,6.77
2018-12-01T09:11:14.161Z,4.40
2018-12-01T09:13:19.003Z,5.57
2018-12-01T09:15:23.082Z,8.33
2018-12-01T09:17:27.169Z,4.93
2018-12-01T09:19:31.190Z,6.03
2018-12-01T09:21:35.208Z,5.40
2018-12-01T09:23:39.222Z,7.63
2018-12-01T09:25:43.256Z,6.60
2018-12-01T09:27:47.598Z,5.53
2018-12-01T09:29:51.645Z,7.27
2018-12-01T09:31:55.691Z,5.60
2018-12-01T09:33:59.721Z,6.90
2018-12-01T09:36:03.733Z,7.53
2018-12-01T09:38:07.769Z,6.70
2018-12-01T09:40:14.476Z,8.23
2018-12-01T09:42:18.506Z,5.20
2018-12-01T09:44:22.502Z,5.10
2018-12-01T09:46:26.563Z,6.03
2018-12-01T09:48:30.573Z,5.92
2018-12-01T09:50:34.734Z,6.60
2018-12-01T09:52:38.728Z,8.23
2018-12-01T09:54:43.004Z,6.67
2018-12-01T09:56:47.002Z,4.27
2018-12-01T09:58:51.045Z,7.17
2018-12-01T10:00:55.061Z,7.13
2018-12-01T10:03:00.671Z,4.23
2018-12-01T10:05:05.541Z,8.13
2018-12-01T10:07:10.352Z,9.20
2018-12-01T10:09:14.588Z,6.50
2018-12-01T10:11:19.377Z,5.60
2018-12-01T10:13:23.741Z,6.85
2018-12-01T10:15:33.016Z,7.77
2018-12-01T10:17:37.058Z,6.67
2018-12-01T10:19:41.174Z,9.67
2018-12-01T10:21:45.313Z,8.77
2018-12-01T10:23:49.335Z,5.53
2018-12-01T10:25:53.406Z,7.83
2018-12-01T10:27:57.456Z,8.80
2018-12-01T10:30:01.519Z,8.53
2018-12-01T10:32:05.681Z,6.10
2018-12-01T10:34:09.786Z,4.43
2018-12-01T10:36:13.883Z,6.50
2018-12-01T10:38:18.372Z,8.03
2018-12-01T10:40:22.412Z,6.53
2018-12-01T10:42:26.462Z,6.35
2018-12-01T10:44:30.514Z,7.80
2018-12-01T10:46:34.589Z,6.87
2018-12-01T10:48:38.697Z,5.83
2018-12-01T10:50:42.768Z,7.50
2018-12-01T10:52:47.731Z,7.43
2018-12-01T10:54:51.877Z,7.60
2018-12-01T10:56:56.021Z,7.07
2018-12-01T10:59:00.062Z,6.20
2018-12-01T11:01:09.372Z,5.83
2018-12-01T11:03:18.898Z,7.37
2018-12-01T11:05:22.980Z,6.73
2018-12-01T11:07:27.072Z,4.27
2018-12-01T11:09:31.158Z,5.50
2018-12-01T11:11:35.224Z,5.53
2018-12-01T11:13:39.240Z,6.20
2018-12-01T11:15:43.345Z,5.97
2018-12-01T11:17:47.373Z,5.83
2018-12-01T11:19:51.474Z,5.33
2018-12-01T11:21:55.486Z,6.50
2018-12-01T11:23:59.561Z,6.87
2018-12-01T11:26:03.771Z,4.90
2018-12-01T11:28:07.873Z,4.60
2018-12-01T11:30:17.449Z,4.13
2018-12-01T11:32:21.503Z,5.30
2018-12-01T11:34:25.505Z,5.63
2018-12-01T11:36:29.546Z,5.67
2018-12-01T11:38:33.639Z,4.08
2018-12-01T11:40:37.727Z,5.00
2018-12-01T11:42:41.773Z,4.33
2018-12-01T11:44:45.790Z,4.90
2018-12-01T11:46:49.865Z,4.43
2018-12-01T11:48:53.894Z,4.27
2018-12-01T11:50:57.949Z,2.77
2018-12-01T11:53:01.992Z,4.17
2018-12-01T11:55:09.980Z,4.13
2018-12-01T11:57:14.081Z,4.70
2018-12-01T11:59:18.177Z,6.10
2018-12-01T12:01:22.282Z,4.37
2018-12-01T12:03:26.363Z,5.73
2018-12-01T12:05:30.395Z,5.40
2018-12-01T12:07:51.714Z,4.17
2018-12-01T12:09:55.939Z,5.80
2018-12-01T12:11:59.982Z,5.93
2018-12-01T12:14:04.026Z,3.87
2018-12-01T12:16:08.227Z,5.47
2018-12-01T12:18:12.501Z,5.07
2018-12-01T12:20:16.598Z,5.20
2018-12-01T12:22:20.607Z,4.87
2018-12-01T12:24:24.695Z,4.73
2018-12-01T12:26:28.803Z,5.12
2018-12-01T12:28:32.814Z,5.97
2018-12-01T12:30:36.910Z,3.90
2018-12-01T12:32:41.005Z,3.63
2018-12-01T12:34:45.035Z,4.93
2018-12-01T12:36:49.129Z,2.70
2018-12-01T12:38:53.357Z,5.73
2018-12-01T12:40:57.514Z,4.10
2018-12-01T12:43:01.953Z,2.33
2018-12-01T12:45:08.870Z,3.77
2018-12-01T12:47:12.898Z,2.20
2018-12-01T12:49:16.963Z,3.07
2018-12-01T12:51:21.046Z,3.33
2018-12-01T12:53:25.057Z,4.10
2018-12-01T12:55:29.102Z,1.93
2018-12-01T12:57:33.122Z,2.80
2018-12-01T12:59:37.189Z,3.05
2018-12-01T13:01:41.320Z,2.70
2018-12-01T13:03:45.347Z,2.90
2018-12-01T13:05:49.509Z,3.70
2018-12-01T13:07:53.911Z,1.43
2018-12-01T13:09:57.909Z,2.90
2018-12-01T13:12:01.991Z,2.83
2018-12-01T13:14:06.833Z,2.97
2018-12-01T13:16:12.074Z,2.03
2018-12-01T13:18:16.298Z,4.27
2018-12-01T13:20:22.584Z,2.80
2018-12-01T13:22:26.822Z,3.47
2018-12-01T13:24:30.833Z,2.70
2018-12-01T13:26:34.893Z,2.20
2018-12-01T13:28:38.970Z,2.17
2018-12-01T13:30:46.384Z,3.58
2018-12-01T13:32:50.450Z,3.63
2018-12-01T13:34:54.491Z,4.43
2018-12-01T13:36:58.506Z,4.43
2018-12-01T13:39:02.551Z,2.93
2018-12-01T13:41:06.787Z,3.40
2018-12-01T13:43:10.890Z,1.63
2018-12-01T13:45:17.195Z,1.33
2018-12-01T13:47:21.216Z,3.10
2018-12-01T13:49:25.269Z,2.45
2018-12-01T13:51:29.317Z,2.40
2018-12-01T13:53:33.445Z,4.15
2018-12-01T13:55:37.588Z,2.42
2018-12-01T13:57:41.638Z,2.40
2018-12-01T13:59:45.711Z,3.63
2018-12-01T14:01:49.878Z,2.33
2018-12-01T14:03:53.941Z,3.30
2018-12-01T14:05:58.139Z,2.90
2018-12-01T14:08:02.341Z,2.27
2018-12-01T14:10:22.486Z,2.13
2018-12-01T14:12:26.528Z,4.10
2018-12-01T14:14:30.668Z,2.60
2018-12-01T14:16:34.727Z,7.22
2018-12-01T14:18:38.734Z,7.97
2018-12-01T14:20:42.891Z,4.03
2018-12-01T14:22:48.343Z,4.43
2018-12-01T14:24:52.433Z,50.40
2018-12-01T14:26:56.560Z,21.40
2018-12-01T14:29:00.622Z,7.97
2018-12-01T14:31:06.750Z,5.87
2018-12-01T14:33:12.359Z,18.27
2018-12-01T14:35:21.285Z,39.93
2018-12-01T14:37:25.298Z,48.23
2018-12-01T14:39:29.448Z,11.73
2018-12-01T14:41:33.464Z,62.35
2018-12-01T14:43:37.547Z,52.33
2018-12-01T14:45:42.750Z,25.97
2018-12-01T14:47:46.922Z,9.40
2018-12-01T14:49:50.985Z,8.67
2018-12-01T14:51:55.068Z,6.00
2018-12-01T14:53:59.065Z,2.80
2018-12-01T14:56:03.167Z,19.07
2018-12-01T14:58:08.157Z,22.80
2018-12-01T15:00:21.007Z,7.30
2018-12-01T15:02:25.001Z,2.40
2018-12-01T15:04:29.044Z,2.07
2018-12-01T15:06:33.036Z,1.30
2018-12-01T15:08:37.217Z,3.62
2018-12-01T15:10:41.230Z,3.60
2018-12-01T15:12:45.257Z,6.17
2018-12-01T15:14:49.265Z,3.93
2018-12-01T15:16:53.405Z,3.50
2018-12-01T15:18:57.425Z,9.60
2018-12-01T15:21:01.486Z,8.43
2018-12-01T15:23:06.682Z,4.30
2018-12-01T15:25:13.650Z,6.03
2018-12-01T15:27:17.667Z,2.87
2018-12-01T15:29:23.040Z,2.03
2018-12-01T15:31:27.050Z,3.07
2018-12-01T15:33:31.066Z,3.60
2018-12-01T15:35:35.205Z,16.95
2018-12-01T15:37:39.209Z,6.00
2018-12-01T15:39:43.344Z,4.47
2018-12-01T15:41:47.343Z,2.83
2018-12-01T15:43:51.365Z,3.20
2018-12-01T15:45:55.405Z,2.13
2018-12-01T15:47:59.413Z,3.63
2018-12-01T15:50:03.491Z,2.97
2018-12-01T15:52:07.503Z,5.27
2018-12-01T15:54:11.550Z,2.53
2018-12-01T15:56:15.542Z,2.50
2018-12-01T15:58:19.654Z,5.47
2018-12-01T16:00:25.472Z,2.10
2018-12-01T16:02:29.484Z,3.67
2018-12-01T16:04:33.507Z,3.55
2018-12-01T16:06:37.571Z,1.65
2018-12-01T16:08:41.622Z,3.80
2018-12-01T16:10:45.818Z,5.20
2018-12-01T16:12:54.757Z,4.03
2018-12-01T16:14:58.958Z,1.40
2018-12-01T16:17:02.994Z,2.77
2018-12-01T16:19:07.209Z,3.53
2018-12-01T16:21:11.245Z,2.67
2018-12-01T16:23:15.308Z,2.23
2018-12-01T16:25:21.598Z,3.37
2018-12-01T16:27:25.617Z,2.40
2018-12-01T16:29:29.699Z,3.30
2018-12-01T16:31:33.881Z,5.10
2018-12-01T16:33:37.900Z,8.85
2018-12-01T16:35:41.910Z,2.13
2018-12-01T16:37:45.947Z,3.97
2018-12-01T16:39:50.117Z,3.90
2018-12-01T16:41:54.281Z,3.90
2018-12-01T16:43:58.313Z,6.37
2018-12-01T16:46:02.460Z,3.13
2018-12-01T16:48:06.783Z,2.60
2018-12-01T16:50:14.562Z,4.00
2018-12-01T16:52:18.773Z,2.23
2018-12-01T16:54:23.370Z,3.47
2018-12-01T16:56:27.402Z,3.55
2018-12-01T16:58:31.442Z,3.27
2018-12-01T17:00:35.519Z,3.03
2018-12-01T17:02:39.552Z,5.08
2018-12-01T17:04:43.570Z,4.40
2018-12-01T17:06:47.744Z,2.80
2018-12-01T17:08:53.683Z,2.10
2018-12-01T17:10:57.957Z,3.97
2018-12-01T17:13:02.073Z,3.70
2018-12-01T17:15:10.571Z,4.70
2018-12-01T17:17:14.689Z,2.47
2018-12-01T17:19:18.863Z,2.60
2018-12-01T17:21:24.028Z,2.23
2018-12-01T17:23:28.197Z,1.33
2018-12-01T17:25:32.551Z,4.97
2018-12-01T17:27:36.830Z,6.40
2018-12-01T17:29:40.846Z,2.42
2018-12-01T17:31:44.964Z,2.97
2018-12-01T17:33:49.058Z,1.73
2018-12-01T17:35:53.195Z,4.83
2018-12-01T17:37:59.217Z,3.60
2018-12-01T17:40:03.661Z,4.75
2018-12-01T17:42:08.739Z,4.40
2018-12-01T17:44:12.850Z,5.30
2018-12-01T17:46:17.097Z,2.30
2018-12-01T17:48:21.131Z,4.97
2018-12-01T17:50:25.420Z,2.80
2018-12-01T17:52:29.583Z,2.97
2018-12-01T17:54:33.618Z,4.20
2018-12-01T17:56:37.977Z,1.70
2018-12-01T17:58:42.004Z,2.60
2018-12-01T18:00:46.114Z,3.90
2018-12-01T18:02:51.928Z,3.77
2018-12-01T18:04:55.974Z,3.30
2018-12-01T18:07:00.048Z,3.27
2018-12-01T18:09:05.242Z,3.40
2018-12-01T18:11:10.624Z,5.17
2018-12-01T18:13:14.667Z,2.23
2018-12-01T18:15:19.399Z,2.20
2018-12-01T18:17:24.389Z,3.62
2018-12-01T18:19:28.470Z,2.10
2018-12-01T18:21:32.521Z,3.13
2018-12-01T18:23:36.606Z,4.23
2018-12-01T18:25:46.073Z,2.58
2018-12-01T18:27:52.317Z,2.50
2018-12-01T18:29:56.377Z,3.63
2018-12-01T18:32:00.957Z,3.07
2018-12-01T18:34:12.957Z,2.37
2018-12-01T18:36:17.041Z,2.20
2018-12-01T18:38:21.066Z,2.63
2018-12-01T18:40:25.078Z,2.10
2018-12-01T18:42:29.166Z,2.17
2018-12-01T18:44:33.146Z,2.08
2018-12-01T18:46:37.322Z,1.57
2018-12-01T18:48:41.343Z,2.20
2018-12-01T18:50:45.421Z,2.43
2018-12-01T18:53:00.362Z,1.93
2018-12-01T18:55:04.721Z,2.33
2018-12-01T18:57:08.961Z,4.53
2018-12-01T18:59:12.978Z,2.37
2018-12-01T19:01:17.111Z,1.87
2018-12-01T19:03:23.373Z,1.50
2018-12-01T19:05:27.405Z,3.50
2018-12-01T19:07:31.421Z,2.17
2018-12-01T19:09:35.522Z,3.77
2018-12-01T19:11:39.591Z,2.30
2018-12-01T19:13:43.593Z,2.03
2018-12-01T19:15:47.640Z,2.40
2018-12-01T19:17:51.645Z,2.73
2018-12-01T19:19:55.703Z,4.00
2018-12-01T19:21:59.757Z,2.53
2018-12-01T19:24:03.785Z,2.07
2018-12-01T19:26:07.859Z,1.17
2018-12-01T19:28:11.988Z,2.33
2018-12-01T19:30:17.790Z,2.83
2018-12-01T19:32:21.924Z,5.17
2018-12-01T19:34:26.005Z,1.43
2018-12-01T19:36:30.061Z,1.77
2018-12-01T19:38:34.238Z,4.07
2018-12-01T19:40:38.314Z,2.60
2018-12-01T19:42:42.301Z,2.25
2018-12-01T19:44:46.350Z,2.77
2018-12-01T19:46:50.382Z,2.50
2018-12-01T19:48:54.505Z,2.30
2018-12-01T19:50:58.585Z,2.40
2018-12-01T19:53:02.674Z,3.17
2018-12-01T19:55:12.156Z,3.10
2018-12-01T19:57:16.320Z,1.50
2018-12-01T19:59:20.353Z,3.30
2018-12-01T20:01:24.614Z,2.33
2018-12-01T20:03:31.362Z,3.40
2018-12-01T20:05:35.395Z,1.92
2018-12-01T20:07:39.597Z,1.70
2018-12-01T20:09:43.744Z,3.10
2018-12-01T20:11:47.782Z,1.77
2018-12-01T20:13:52.596Z,3.13
2018-12-01T20:16:04.850Z,2.50
2018-12-01T20:18:16.822Z,3.37
2018-12-01T20:20:21.336Z,2.10
2018-12-01T20:22:25.459Z,2.30
2018-12-01T20:24:29.729Z,2.87
2018-12-01T20:26:35.158Z,3.05
2018-12-01T20:28:39.294Z,5.30
2018-12-01T20:30:50.955Z,2.13
2018-12-01T20:32:55.113Z,2.17
2018-12-01T20:34:59.106Z,2.03
2018-12-01T20:37:08.110Z,1.93
2018-12-01T20:39:18.833Z,1.30
2018-12-01T20:41:22.931Z,2.40
2018-12-01T20:43:27.122Z,2.63
2018-12-01T20:45:31.306Z,2.75
2018-12-01T20:47:35.358Z,2.77
2018-12-01T20:49:39.547Z,2.55
2018-12-01T20:51:43.686Z,1.73
2018-12-01T20:53:47.758Z,3.20
2018-12-01T20:55:56.045Z,2.80
2018-12-01T20:58:02.946Z,2.30
2018-12-01T21:00:10.803Z,2.27
2018-12-01T21:02:14.901Z,2.23
2018-12-01T21:04:19.045Z,2.27
2018-12-01T21:06:23.161Z,1.57
2018-12-01T21:08:27.952Z,2.57
2018-12-01T21:10:34.887Z,1.90
2018-12-01T21:12:38.958Z,2.60
2018-12-01T21:14:43.053Z,2.53
2018-12-01T21:16:47.118Z,1.73
2018-12-01T21:18:51.145Z,1.20
2018-12-01T21:20:55.308Z,1.60
2018-12-01T21:22:59.407Z,2.23
2018-12-01T21:25:03.534Z,2.00
2018-12-01T21:27:07.616Z,2.33
2018-12-01T21:29:11.618Z,4.00
2018-12-01T21:31:15.751Z,4.70
2018-12-01T21:33:22.822Z,2.25
2018-12-01T21:35:26.877Z,1.10
2018-12-01T21:37:30.951Z,2.22
2018-12-01T21:39:34.978Z,2.83
2018-12-01T21:41:39.022Z,3.83
2018-12-01T21:43:43.056Z,4.17
2018-12-01T21:45:47.033Z,3.57
2018-12-01T21:47:51.056Z,3.03
2018-12-01T21:49:55.129Z,2.10
2018-12-01T21:51:59.216Z,1.80
2018-12-01T21:54:03.386Z,1.70
2018-12-01T21:56:07.365Z,3.23
2018-12-01T21:58:11.361Z,3.17
2018-12-01T22:00:18.495Z,3.13
2018-12-01T22:02:22.665Z,2.37
2018-12-01T22:04:26.789Z,3.20
2018-12-01T22:06:30.770Z,2.60
2018-12-01T22:08:36.083Z,5.37
2018-12-01T22:10:40.414Z,1.75
2018-12-01T22:12:44.560Z,2.53
2018-12-01T22:14:48.698Z,2.53
2018-12-01T22:16:52.703Z,1.83
2018-12-01T22:18:56.808Z,1.60
2018-12-01T22:21:00.962Z,2.63
2018-12-01T22:23:06.172Z,2.37
2018-12-01T22:25:11.111Z,2.53
2018-12-01T22:27:15.112Z,2.13
2018-12-01T22:29:19.164Z,2.77
2018-12-01T22:31:23.172Z,1.43
2018-12-01T22:33:28.329Z,3.33
2018-12-01T22:35:32.432Z,1.47
2018-12-01T22:37:36.494Z,3.37
2018-12-01T22:39:41.187Z,2.07
2018-12-01T22:41:45.197Z,1.90
2018-12-01T22:43:49.312Z,1.90
2018-12-01T22:45:53.505Z,3.30
2018-12-01T22:48:00.645Z,2.83
2018-12-01T22:50:09.765Z,1.67
2018-12-01T22:52:13.809Z,1.27
2018-12-01T22:54:17.833Z,2.73
2018-12-01T22:56:21.879Z,2.30
2018-12-01T22:58:26.084Z,1.30
2018-12-01T23:00:39.662Z,2.52
2018-12-01T23:02:43.720Z,2.33
2018-12-01T23:04:47.950Z,2.30
2018-12-01T23:06:52.040Z,1.47
2018-12-01T23:08:56.218Z,1.43
2018-12-01T23:11:00.268Z,1.00
2018-12-01T23:13:04.289Z,1.27
2018-12-01T23:15:12.770Z,1.95
2018-12-01T23:17:16.844Z,2.40
2018-12-01T23:19:20.848Z,2.93
2018-12-01T23:21:25.358Z,3.53
2018-12-01T23:23:29.354Z,1.05
2018-12-01T23:25:33.354Z,1.70
2018-12-01T23:27:37.558Z,0.80
2018-12-01T23:29:41.591Z,1.65
2018-12-01T23:31:45.602Z,1.77
2018-12-01T23:33:49.738Z,1.17
2018-12-01T23:35:53.812Z,4.10
2018-12-01T23:37:58.229Z,2.30
2018-12-01T23:40:02.277Z,1.17
2018-12-01T23:42:06.419Z,1.83
2018-12-01T23:44:14.646Z,1.73
2018-12-01T23:46:18.696Z,1.87
2018-12-01T23:48:22.890Z,2.73
2018-12-01T23:50:27.526Z,3.60
2018-12-01T23:52:31.581Z,2.12
2018-12-01T23:54:35.580Z,1.53
2018-12-01T23:56:39.605Z,1.85
2018-12-01T23:58:43.679Z,1.37
